Pagina principale
METAR-TAF:

METAR-TAF

Aeroporti :

Aeroporto di Anversa-Deurne

Anversa, Belgio

latitudine: 51-12N, longitudine: 004-28E, altezza: 12 m

Osservazione

Il bollettino è stato emesso 29 minuti fa, alle 09:50 UTC
Vento 12 kt da ovest, variando fra ovest/sud-ovest e nord-ovest
Temperature 15°C
Umidità 59%
Pressione 1007 hPa
Visibilità 10 km o più
Nubi sparse ad un'altezza di 3000 ft

METAR: EBAW 070950Z 27012KT 250V310 9999 SCT030 15/07 Q1007 NOSIG

Ora: 12:19 (10:19 UTC)

Previsione

Il bollettino è stato emesso 1 ora e 59 minuti fa, alle 08:20 UTC
Previsione valida dal 07 alle 09 UTC al 07 alle 18 UTC
Vento 10 kt da ovest
Visibilità 10 km o più
Nubi sparse ad un'altezza di 2800 ft
Evoluzione graduale
dal 07 alle 16 UTC al 07 alle 18 UTC
Vento 8 kt da nord-ovest

TAF: EBAW 070820Z 0709/0718 26010KT 9999 SCT028 BECMG 0716/0718 32008KT

Osservazioni e previsioni meteorologiche di più di 4000 aeroporti (messaggi METAR e TAF).

Le stazioni disponibili sono rappresentate dai dischi gialli e rossi sulla carta.

Puntare il mouse per vedere il nome della stazione.

Clicca sopra per visualizzare le osservazioni e previsioni meteorologiche.

Per cambiare la mappa : fare clic sui pulsanti verdi con una croce nera per ingrandire, il pulsante verde con un trattino per diminuire, o sulla freccia verde per le mappe adiacenti.


METAR-TAF: